Time;durP1;ratioP1;P1;durP2;ratioP2;P2;SDS_P1;SDS_P2;PMS_P1;PMS_P2;Temp;Humidity;BMP_temperature;BMP_pressure;BME280_temperature;BME280_humidity;BME280_pressure;Samples;Min_cycle;Max_cycle;Signal;HPM_P1;HPM_P2
2021/03/04 00:02:08;;;;;;;31.03;23.03;;;7.20;99.90;;;;;;5113035;28;20441;-73
2021/03/04 00:04:35;;;;;;;27.50;23.50;;;7.20;99.90;;;;;;5112156;28;20539;-74
2021/03/04 00:07:01;;;;;;;31.70;23.50;;;7.20;99.90;;;;;;5112485;28;20568;-73
2021/03/04 00:09:28;;;;;;;34.60;20.60;;;7.10;99.90;;;;;;5113115;28;20452;-73
2021/03/04 00:11:55;;;;;;;27.33;22.23;;;7.20;99.90;;;;;;5112762;28;20452;-73
2021/03/04 00:14:21;;;;;;;29.03;22.33;;;7.10;99.90;;;;;;5112116;28;20485;-73
2021/03/04 00:16:47;;;;;;;30.00;21.50;;;7.10;99.90;;;;;;5112712;28;20524;-72
2021/03/04 00:19:14;;;;;;;30.20;21.57;;;7.00;99.90;;;;;;5112598;28;20453;-72
2021/03/04 00:21:40;;;;;;;29.60;22.30;;;7.10;99.90;;;;;;5112698;28;20472;-72
2021/03/04 00:24:08;;;;;;;30.70;21.73;;;7.10;99.90;;;;;;5111690;28;20480;-72
2021/03/04 00:26:35;;;;;;;27.73;21.47;;;7.10;99.90;;;;;;5112402;28;20813;-73
2021/03/04 00:29:01;;;;;;;26.27;21.20;;;7.00;99.90;;;;;;5112681;28;20445;-72
2021/03/04 00:31:28;;;;;;;29.53;22.03;;;7.00;99.90;;;;;;5112934;28;20919;-73
2021/03/04 00:33:54;;;;;;;29.53;22.20;;;7.00;99.90;;;;;;5111272;28;20825;-73
2021/03/04 00:36:21;;;;;;;34.87;21.30;;;7.00;99.90;;;;;;5112236;28;21144;-72
2021/03/04 00:38:47;;;;;;;29.73;21.47;;;6.90;99.90;;;;;;5111935;28;20432;-73
2021/03/04 00:41:13;;;;;;;28.67;23.00;;;6.80;99.90;;;;;;5112167;28;20536;-72
2021/03/04 00:43:41;;;;;;;31.10;23.27;;;6.70;99.90;;;;;;5111679;28;20552;-72
2021/03/04 00:46:07;;;;;;;27.03;22.53;;;6.80;99.90;;;;;;5112074;28;20833;-72
2021/03/04 00:48:33;;;;;;;29.03;21.37;;;6.80;99.90;;;;;;5112517;28;20441;-72
2021/03/04 00:51:00;;;;;;;29.90;22.03;;;6.80;99.90;;;;;;5112147;28;20438;-72
2021/03/04 00:53:26;;;;;;;31.30;22.93;;;6.70;99.90;;;;;;5111434;28;20438;-73
2021/03/04 00:55:52;;;;;;;26.43;21.30;;;6.60;99.90;;;;;;5112007;28;20499;-72
2021/03/04 00:58:19;;;;;;;29.63;22.00;;;6.50;99.90;;;;;;5112126;28;20810;-72
2021/03/04 01:00:46;;;;;;;29.30;22.00;;;6.50;99.90;;;;;;5112022;28;20472;-72
2021/03/04 01:03:12;;;;;;;26.30;21.33;;;6.40;99.90;;;;;;5111857;28;20513;-72
2021/03/04 01:05:38;;;;;;;30.40;21.90;;;6.40;99.90;;;;;;5111390;28;20546;-72
2021/03/04 01:08:05;;;;;;;27.73;21.60;;;6.30;99.90;;;;;;5112194;28;20446;-72
2021/03/04 01:10:35;;;;;;;29.90;21.67;;;6.40;99.90;;;;;;5111773;28;21118;-72
2021/03/04 01:13:01;;;;;;;33.03;24.27;;;6.50;99.90;;;;;;5112163;28;20445;-73
2021/03/04 01:15:29;;;;;;;28.57;22.33;;;6.60;99.90;;;;;;5110830;28;20554;-72
2021/03/04 01:17:57;;;;;;;31.80;22.30;;;6.60;99.90;;;;;;5112093;28;20445;-72
2021/03/04 01:20:24;;;;;;;25.80;20.63;;;6.50;99.90;;;;;;5116419;28;20455;-73
2021/03/04 01:22:50;;;;;;;31.43;22.20;;;6.40;99.90;;;;;;5115947;28;20453;-73
2021/03/04 01:25:19;;;;;;;30.10;22.10;;;6.30;99.90;;;;;;5115464;28;20578;-74
2021/03/04 01:27:47;;;;;;;29.43;22.57;;;6.30;99.90;;;;;;5115987;27;20521;-72
2021/03/04 01:30:15;;;;;;;28.20;21.63;;;6.20;99.90;;;;;;5116477;28;20456;-73
2021/03/04 01:32:42;;;;;;;30.80;22.17;;;6.10;99.90;;;;;;5116151;28;20502;-74
2021/03/04 01:35:10;;;;;;;27.57;22.77;;;6.10;99.90;;;;;;5115057;28;20483;-72
2021/03/04 01:37:37;;;;;;;31.70;24.20;;;6.10;99.90;;;;;;5115821;28;20452;-73
2021/03/04 01:40:06;;;;;;;31.80;21.00;;;6.10;99.90;;;;;;5116004;28;20441;-73
2021/03/04 01:42:33;;;;;;;28.77;22.20;;;6.20;99.90;;;;;;5115926;28;20455;-72
2021/03/04 01:44:59;;;;;;;34.93;23.97;;;6.20;99.90;;;;;;5114876;28;20453;-72
2021/03/04 01:47:26;;;;;;;31.70;22.10;;;6.20;99.90;;;;;;5115285;27;20445;-72
2021/03/04 01:49:52;;;;;;;32.80;22.53;;;6.20;99.90;;;;;;5115094;28;20444;-72
2021/03/04 01:52:21;;;;;;;32.20;22.60;;;6.20;99.90;;;;;;5115149;28;20441;-72
2021/03/04 01:54:47;;;;;;;33.00;24.23;;;6.30;99.90;;;;;;5114200;28;20917;-72
2021/03/04 01:57:14;;;;;;;32.57;24.07;;;6.30;99.90;;;;;;5114861;28;20449;-73
2021/03/04 01:59:41;;;;;;;29.43;24.27;;;6.30;99.90;;;;;;5114994;28;20923;-72
2021/03/04 02:02:08;;;;;;;26.67;22.07;;;6.40;99.90;;;;;;5115199;28;20802;-72
2021/03/04 02:04:34;;;;;;;31.50;22.87;;;6.30;99.90;;;;;;5114382;28;20456;-72
2021/03/04 02:07:10;;;;;;;26.93;21.73;;;6.20;99.90;;;;;;5114636;28;20804;-72
2021/03/04 02:09:40;;;;;;;32.30;23.07;;;6.20;99.90;;;;;;5114729;28;20437;-73
2021/03/04 02:12:14;;;;;;;30.30;23.13;;;6.30;99.90;;;;;;5114685;28;20502;-72
2021/03/04 02:14:50;;;;;;;32.70;23.13;;;6.30;99.90;;;;;;5114141;28;20480;-72
2021/03/04 02:17:21;;;;;;;29.90;23.97;;;6.30;99.90;;;;;;5114702;28;20448;-72
2021/03/04 02:19:51;;;;;;;29.10;23.10;;;6.30;99.90;;;;;;5114705;28;20445;-72
2021/03/04 02:22:43;;;;;;;29.30;23.97;;;6.20;99.90;;;;;;5114154;28;20441;-72
2021/03/04 02:25:14;;;;;;;31.50;23.20;;;6.20;99.90;;;;;;5105420;28;20461;-72
2021/03/04 02:27:43;;;;;;;26.83;21.93;;;6.30;99.90;;;;;;5114264;28;20447;-72
2021/03/04 02:30:14;;;;;;;33.80;23.40;;;6.30;99.90;;;;;;5113825;27;20464;-72
2021/03/04 02:32:45;;;;;;;30.63;24.07;;;6.30;99.90;;;;;;5114107;28;20445;-72
2021/03/04 02:35:15;;;;;;;27.80;22.53;;;6.30;99.90;;;;;;5113376;28;20641;-73
2021/03/04 02:37:44;;;;;;;29.73;22.43;;;6.20;99.90;;;;;;5114496;28;20501;-72
2021/03/04 02:40:12;;;;;;;31.70;23.73;;;6.10;99.90;;;;;;5114124;28;20468;-73
2021/03/04 02:42:41;;;;;;;37.93;24.40;;;6.00;99.90;;;;;;5114088;28;20449;-72
2021/03/04 02:45:10;;;;;;;32.23;24.70;;;5.90;99.90;;;;;;5113275;28;20465;-72
2021/03/04 02:47:38;;;;;;;34.43;24.50;;;5.90;99.90;;;;;;5114028;28;20452;-72
2021/03/04 02:50:06;;;;;;;35.43;24.60;;;5.90;99.90;;;;;;5113716;28;20831;-72
2021/03/04 02:52:34;;;;;;;36.47;24.93;;;6.00;99.90;;;;;;5113830;28;20491;-72
2021/03/04 02:55:02;;;;;;;35.73;25.00;;;6.10;99.90;;;;;;5112915;28;20481;-72
2021/03/04 02:57:29;;;;;;;34.00;24.63;;;6.10;99.90;;;;;;5113748;28;20441;-72
2021/03/04 02:59:57;;;;;;;33.47;24.80;;;6.10;99.90;;;;;;5114054;28;20441;-72
2021/03/04 03:02:25;;;;;;;36.87;25.63;;;6.20;99.90;;;;;;5113714;28;20445;-72
2021/03/04 03:04:53;;;;;;;32.70;24.67;;;6.10;99.90;;;;;;5112711;28;20501;-72
2021/03/04 03:07:20;;;;;;;26.47;22.80;;;6.10;99.90;;;;;;5113428;28;20490;-72
2021/03/04 03:09:47;;;;;;;33.13;23.73;;;6.00;99.90;;;;;;5113376;28;20974;-72
2021/03/04 03:12:15;;;;;;;36.10;25.13;;;6.00;99.90;;;;;;5113228;28;20441;-72
2021/03/04 03:14:43;;;;;;;30.47;23.00;;;6.00;99.90;;;;;;5112036;28;20906;-72
2021/03/04 03:17:10;;;;;;;30.67;25.40;;;6.00;99.90;;;;;;5112408;27;20449;-72
2021/03/04 03:19:36;;;;;;;31.53;22.80;;;6.00;99.90;;;;;;5113213;28;20441;-72
2021/03/04 03:22:03;;;;;;;29.97;23.30;;;6.00;99.90;;;;;;5113246;28;20498;-72
2021/03/04 03:24:29;;;;;;;35.53;25.10;;;6.10;99.90;;;;;;5112139;28;20983;-72
2021/03/04 03:26:56;;;;;;;29.03;23.13;;;6.00;99.90;;;;;;5113527;28;20551;-72
2021/03/04 03:29:22;;;;;;;33.47;22.53;;;6.00;99.90;;;;;;5113254;28;20489;-72
2021/03/04 03:31:50;;;;;;;31.67;24.33;;;6.00;99.90;;;;;;5113115;28;20501;-72
2021/03/04 03:34:18;;;;;;;27.70;22.50;;;5.90;99.90;;;;;;5112173;28;20487;-72
2021/03/04 03:36:46;;;;;;;29.53;22.37;;;5.90;99.90;;;;;;5112868;27;20505;-72
2021/03/04 03:39:14;;;;;;;26.60;21.83;;;5.90;99.90;;;;;;5112699;28;20955;-72
2021/03/04 03:41:43;;;;;;;31.53;23.20;;;5.80;99.90;;;;;;5112149;28;20437;-72
2021/03/04 03:44:11;;;;;;;33.20;24.83;;;5.80;99.90;;;;;;5112236;28;20458;-72
2021/03/04 03:46:38;;;;;;;37.20;25.13;;;5.70;99.90;;;;;;5112732;28;20453;-72
2021/03/04 03:49:05;;;;;;;33.90;25.37;;;5.90;99.90;;;;;;5112673;28;20445;-73
2021/03/04 03:51:34;;;;;;;29.17;23.43;;;5.90;99.90;;;;;;5112512;28;20445;-72
2021/03/04 03:54:03;;;;;;;31.40;24.37;;;5.90;99.90;;;;;;5111787;28;21232;-72
2021/03/04 03:56:31;;;;;;;34.30;24.60;;;5.90;99.90;;;;;;5112538;28;20477;-72
2021/03/04 03:58:59;;;;;;;34.50;24.30;;;5.80;99.90;;;;;;5112537;28;20451;-72
2021/03/04 04:01:27;;;;;;;32.50;24.53;;;5.80;99.90;;;;;;5112608;28;20818;-73
2021/03/04 04:03:55;;;;;;;35.00;24.47;;;5.80;99.90;;;;;;5111638;28;20853;-73
2021/03/04 04:06:21;;;;;;;28.90;23.83;;;5.80;99.90;;;;;;5112368;28;20447;-73
2021/03/04 04:08:49;;;;;;;29.77;24.73;;;5.80;99.90;;;;;;5112587;28;20531;-72
2021/03/04 04:11:15;;;;;;;33.93;26.50;;;5.70;99.90;;;;;;5112523;28;20449;-72
2021/03/04 04:13:41;;;;;;;30.77;25.03;;;5.70;99.90;;;;;;5111596;28;20580;-73
2021/03/04 04:16:08;;;;;;;31.43;24.53;;;5.60;99.90;;;;;;5112164;28;20492;-72
2021/03/04 04:18:35;;;;;;;33.67;24.20;;;5.60;99.90;;;;;;5112124;28;20455;-72
2021/03/04 04:21:01;;;;;;;38.60;24.77;;;5.60;99.90;;;;;;5112034;28;20441;-72
2021/03/04 04:23:29;;;;;;;32.20;24.60;;;5.50;99.90;;;;;;5111417;28;20972;-73
2021/03/04 04:25:56;;;;;;;31.70;23.87;;;5.60;99.90;;;;;;5112228;28;20442;-72
2021/03/04 04:28:23;;;;;;;32.60;23.97;;;5.60;99.90;;;;;;5111866;28;20979;-72
2021/03/04 04:30:49;;;;;;;35.03;24.97;;;5.50;99.90;;;;;;5111822;28;20528;-72
2021/03/04 04:33:16;;;;;;;30.20;23.47;;;5.40;99.90;;;;;;5111796;28;20445;-72
2021/03/04 04:35:43;;;;;;;29.17;24.30;;;5.30;99.90;;;;;;5111146;28;20477;-72
2021/03/04 04:38:09;;;;;;;31.63;24.80;;;5.30;99.90;;;;;;5111992;28;20874;-72
2021/03/04 04:40:36;;;;;;;33.80;25.80;;;5.20;99.90;;;;;;5111655;28;20445;-72
2021/03/04 04:43:03;;;;;;;33.57;24.50;;;5.20;99.90;;;;;;5111524;28;21193;-72
2021/03/04 04:45:29;;;;;;;30.50;24.07;;;5.20;99.90;;;;;;5110843;28;20468;-72
2021/03/04 04:47:56;;;;;;;34.40;25.53;;;5.10;99.90;;;;;;5111689;28;20520;-72
2021/03/04 04:50:22;;;;;;;34.23;24.97;;;5.10;99.90;;;;;;5111768;28;20445;-72
2021/03/04 04:52:49;;;;;;;36.80;26.33;;;5.10;99.90;;;;;;5111380;28;20444;-72
2021/03/04 04:55:15;;;;;;;30.77;26.03;;;5.20;99.90;;;;;;5110893;28;20488;-72
2021/03/04 04:57:42;;;;;;;31.87;24.77;;;5.30;99.90;;;;;;5111529;28;20445;-72
2021/03/04 05:00:11;;;;;;;33.80;25.10;;;5.40;99.90;;;;;;5111417;28;20502;-72
2021/03/04 05:02:37;;;;;;;34.83;26.87;;;5.40;99.90;;;;;;5111281;28;20448;-72
2021/03/04 05:05:05;;;;;;;32.33;24.70;;;5.40;99.90;;;;;;5110394;28;20457;-72
2021/03/04 05:07:32;;;;;;;33.73;24.80;;;5.50;99.90;;;;;;5111931;28;20441;-73
2021/03/04 05:09:58;;;;;;;33.33;24.17;;;5.40;99.90;;;;;;5111507;28;20441;-72
2021/03/04 05:12:25;;;;;;;35.23;24.90;;;5.30;99.90;;;;;;5111417;28;20935;-72
2021/03/04 05:14:52;;;;;;;31.67;26.67;;;5.20;99.90;;;;;;5110613;28;20577;-72
2021/03/04 05:17:19;;;;;;;33.97;24.73;;;5.30;99.90;;;;;;5111514;28;20445;-72
2021/03/04 05:19:45;;;;;;;33.43;25.70;;;5.30;99.90;;;;;;5111666;28;21070;-72
2021/03/04 05:22:12;;;;;;;33.87;27.00;;;5.30;99.90;;;;;;5111488;28;20539;-72
2021/03/04 05:24:38;;;;;;;35.03;26.47;;;5.20;99.90;;;;;;5110925;28;20457;-72
2021/03/04 05:27:05;;;;;;;36.30;24.17;;;5.20;99.90;;;;;;5111172;28;20533;-72
2021/03/04 05:29:32;;;;;;;34.83;23.47;;;5.10;99.90;;;;;;5111409;28;20498;-73
2021/03/04 05:31:58;;;;;;;31.67;23.33;;;5.10;99.90;;;;;;5111257;28;20524;-73
2021/03/04 05:34:25;;;;;;;28.00;19.73;;;5.10;99.90;;;;;;5110445;28;20472;-72
2021/03/04 05:36:52;;;;;;;27.40;20.90;;;5.10;99.90;;;;;;5111087;28;20467;-73
2021/03/04 05:39:18;;;;;;;27.10;20.30;;;5.00;99.90;;;;;;5111372;28;20480;-71
2021/03/04 05:41:45;;;;;;;27.40;20.93;;;5.00;99.90;;;;;;5111003;28;20519;-71
2021/03/04 05:44:11;;;;;;;33.10;21.17;;;4.90;99.90;;;;;;5108863;28;20453;-71
2021/03/04 05:46:39;;;;;;;27.67;21.50;;;4.80;99.90;;;;;;5110911;28;20430;-71
2021/03/04 05:49:09;;;;;;;24.57;19.93;;;4.80;99.90;;;;;;5110979;28;20437;-72
2021/03/04 05:51:37;;;;;;;29.67;19.77;;;4.90;99.90;;;;;;5110324;28;20449;-71
2021/03/04 05:54:06;;;;;;;31.30;19.80;;;4.90;99.90;;;;;;5110003;28;20472;-72
2021/03/04 05:56:35;;;;;;;29.80;20.83;;;4.80;99.90;;;;;;5111076;28;20485;-72
2021/03/04 05:59:02;;;;;;;27.33;19.87;;;4.70;99.90;;;;;;5111273;28;20437;-72
2021/03/04 06:01:29;;;;;;;27.50;20.20;;;4.70;99.90;;;;;;5111285;28;20449;-71
2021/03/04 06:03:55;;;;;;;29.50;21.07;;;4.80;99.90;;;;;;5110442;28;20461;-71
2021/03/04 06:06:22;;;;;;;26.60;20.37;;;4.80;99.90;;;;;;5114950;28;20463;-71
2021/03/04 06:08:49;;;;;;;26.13;19.83;;;4.80;99.90;;;;;;5114904;28;20452;-71
2021/03/04 06:11:15;;;;;;;28.80;19.20;;;4.80;99.90;;;;;;5114720;28;20536;-72
2021/03/04 06:13:42;;;;;;;31.53;20.57;;;4.70;99.90;;;;;;5112711;28;20548;-71
2021/03/04 06:16:09;;;;;;;28.90;20.23;;;4.70;99.90;;;;;;5112156;28;20479;-70
2021/03/04 06:18:40;;;;;;;32.63;20.00;;;4.60;99.90;;;;;;5113865;28;20536;-71
2021/03/04 06:21:20;;;;;;;26.37;19.30;;;4.60;99.90;;;;;;5114604;28;20441;-70
2021/03/04 06:23:47;;;;;;;29.10;20.87;;;4.60;99.90;;;;;;5111719;28;20477;-69
2021/03/04 06:26:28;;;;;;;29.70;20.10;;;4.60;99.90;;;;;;5111809;28;21008;-70
2021/03/04 06:28:55;;;;;;;31.10;20.37;;;4.60;99.90;;;;;;5114221;28;20437;-68
2021/03/04 06:31:22;;;;;;;25.37;20.60;;;4.60;99.90;;;;;;5113949;28;20505;-70
2021/03/04 06:33:48;;;;;;;27.30;19.33;;;4.70;99.90;;;;;;5113209;28;20469;-71
2021/03/04 06:36:17;;;;;;;29.67;22.20;;;4.60;99.90;;;;;;5105884;28;20589;-70
2021/03/04 06:38:54;;;;;;;28.17;20.50;;;4.70;99.90;;;;;;5102418;28;20450;-70
2021/03/04 06:41:22;;;;;;;27.47;20.07;;;4.80;99.90;;;;;;5093176;28;20445;-68
2021/03/04 06:43:59;;;;;;;22.83;19.80;;;4.90;99.90;;;;;;5102992;28;20465;-70
2021/03/04 06:46:26;;;;;;;27.77;20.27;;;4.80;99.90;;;;;;5107499;28;20442;-70
2021/03/04 06:48:53;;;;;;;29.10;20.17;;;4.90;99.90;;;;;;5090996;28;20434;-71
2021/03/04 06:51:20;;;;;;;24.20;19.07;;;4.90;99.90;;;;;;5091168;28;20523;-70
2021/03/04 06:53:53;;;;;;;23.97;18.97;;;5.00;99.90;;;;;;5090270;28;20462;-68
2021/03/04 06:56:29;;;;;;;27.53;21.27;;;5.00;99.90;;;;;;5095283;28;20478;-68
2021/03/04 06:59:01;;;;;;;27.90;20.30;;;5.10;99.90;;;;;;5097339;28;20461;-69
2021/03/04 07:01:27;;;;;;;27.80;21.67;;;5.10;99.90;;;;;;5091127;28;20830;-69
2021/03/04 07:03:54;;;;;;;25.90;19.83;;;5.20;99.90;;;;;;5102635;28;20473;-68
2021/03/04 07:06:22;;;;;;;32.40;22.67;;;5.20;99.90;;;;;;5111635;28;20442;-69
2021/03/04 07:08:50;;;;;;;29.20;21.37;;;5.40;99.90;;;;;;5111410;28;20540;-68
2021/03/04 07:11:18;;;;;;;29.73;19.00;;;5.40;99.90;;;;;;5111341;28;20582;-70
2021/03/04 07:13:45;;;;;;;23.37;18.93;;;5.50;99.90;;;;;;5110455;28;20461;-70
2021/03/04 07:16:17;;;;;;;32.37;21.67;;;5.60;99.90;;;;;;5109834;27;20489;-67
2021/03/04 07:18:45;;;;;;;27.50;19.20;;;5.70;99.90;;;;;;5111899;28;20441;-69
2021/03/04 07:21:14;;;;;;;24.77;19.23;;;5.70;99.90;;;;;;5111496;28;20894;-70
2021/03/04 07:23:42;;;;;;;27.10;19.90;;;5.80;99.90;;;;;;5109999;28;20473;-68
2021/03/04 07:26:10;;;;;;;28.00;20.80;;;5.90;99.90;;;;;;5111096;28;20939;-68
2021/03/04 07:28:39;;;;;;;28.17;20.23;;;6.00;99.90;;;;;;5111366;28;20445;-68
2021/03/04 07:31:07;;;;;;;30.53;20.10;;;6.30;99.90;;;;;;5110921;28;20837;-68
2021/03/04 07:33:36;;;;;;;29.20;21.70;;;6.60;99.90;;;;;;5110120;28;20446;-68
2021/03/04 07:36:05;;;;;;;23.63;19.47;;;6.90;99.90;;;;;;5110366;28;20473;-68
2021/03/04 07:38:33;;;;;;;29.13;20.50;;;7.10;99.90;;;;;;5111027;28;20445;-68
2021/03/04 07:41:08;;;;;;;22.53;19.17;;;7.30;99.90;;;;;;5110493;28;20996;-68
2021/03/04 07:43:47;;;;;;;24.20;20.77;;;7.40;99.90;;;;;;5110124;28;20823;-68
2021/03/04 07:46:29;;;;;;;26.13;18.10;;;7.40;99.90;;;;;;5110887;28;20441;-69
2021/03/04 07:48:57;;;;;;;25.07;19.47;;;7.20;99.90;;;;;;5110846;28;20488;-68
2021/03/04 07:51:24;;;;;;;26.30;19.20;;;7.10;99.90;;;;;;5110810;28;20471;-69
2021/03/04 07:53:52;;;;;;;24.50;21.00;;;7.20;99.90;;;;;;5109671;28;20469;-68
2021/03/04 07:56:23;;;;;;;28.37;20.40;;;7.30;99.90;;;;;;5110882;28;20512;-69
2021/03/04 07:58:49;;;;;;;31.10;22.87;;;7.60;99.90;;;;;;5110902;28;20805;-68
2021/03/04 08:01:16;;;;;;;27.53;22.47;;;7.90;99.90;;;;;;5110289;28;20477;-68
2021/03/04 08:03:46;;;;;;;28.17;21.13;;;8.30;99.90;;;;;;5109545;28;20496;-69
2021/03/04 08:06:14;;;;;;;24.67;19.70;;;8.80;99.90;;;;;;5110553;28;20437;-69
2021/03/04 08:08:40;;;;;;;24.83;19.63;;;9.00;99.90;;;;;;5110596;28;20506;-69
2021/03/04 08:11:07;;;;;;;30.57;23.00;;;9.10;99.90;;;;;;5110257;28;20453;-68
2021/03/04 08:13:36;;;;;;;25.37;21.40;;;9.00;99.90;;;;;;5109150;28;20543;-68
2021/03/04 08:16:11;;;;;;;27.00;21.83;;;8.90;99.90;;;;;;5109925;28;20509;-68
2021/03/04 08:18:38;;;;;;;29.33;23.30;;;8.70;99.90;;;;;;5110111;28;20537;-69
2021/03/04 08:21:06;;;;;;;33.30;22.50;;;8.70;99.90;;;;;;5109908;28;20975;-68
2021/03/04 08:23:40;;;;;;;27.97;22.60;;;8.70;99.90;;;;;;5108177;28;20545;-68
2021/03/04 08:26:08;;;;;;;35.13;22.23;;;8.80;99.90;;;;;;5106110;28;20954;-69
2021/03/04 08:28:34;;;;;;;31.30;22.47;;;8.90;99.90;;;;;;5107637;28;20501;-68
2021/03/04 08:31:06;;;;;;;28.93;23.03;;;9.00;99.90;;;;;;5107171;28;20445;-70
2021/03/04 08:33:33;;;;;;;30.47;20.87;;;9.20;99.90;;;;;;5108805;28;20470;-71
2021/03/04 08:36:01;;;;;;;27.73;22.00;;;9.50;99.90;;;;;;5109549;28;20477;-71
2021/03/04 08:38:37;;;;;;;30.23;22.40;;;9.70;99.90;;;;;;5109976;28;20445;-71
2021/03/04 08:41:04;;;;;;;27.50;23.20;;;9.90;99.90;;;;;;5111412;28;20459;-70
2021/03/04 08:43:31;;;;;;;26.93;21.33;;;10.20;99.90;;;;;;5108655;28;20446;-71
2021/03/04 08:45:59;;;;;;;27.93;19.83;;;10.40;99.90;;;;;;5107579;28;20434;-72
2021/03/04 08:48:25;;;;;;;24.33;19.70;;;10.60;99.90;;;;;;5108847;28;20528;-72
2021/03/04 08:50:53;;;;;;;21.93;19.10;;;10.90;99.90;;;;;;5109111;28;20459;-72
2021/03/04 08:53:21;;;;;;;29.90;19.23;;;11.20;99.90;;;;;;5109450;28;20475;-71
2021/03/04 08:55:49;;;;;;;26.47;18.07;;;11.60;99.90;;;;;;5108543;28;20956;-70
2021/03/04 08:58:17;;;;;;;26.97;17.77;;;11.90;99.90;;;;;;5109256;28;20463;-70
2021/03/04 09:00:50;;;;;;;19.10;17.10;;;12.20;99.90;;;;;;5109163;28;20484;-71
2021/03/04 09:03:17;;;;;;;27.33;18.20;;;12.50;99.90;;;;;;5109941;28;20449;-69
2021/03/04 09:05:43;;;;;;;24.10;18.73;;;12.90;99.90;;;;;;5109206;28;20540;-71
2021/03/04 09:08:11;;;;;;;23.67;18.20;;;13.30;99.90;;;;;;5109538;28;20438;-71
2021/03/04 09:10:43;;;;;;;19.00;14.80;;;13.90;99.90;;;;;;5109430;28;20545;-69
2021/03/04 09:13:10;;;;;;;20.40;14.30;;;14.50;99.90;;;;;;5109141;28;20513;-70
2021/03/04 09:15:43;;;;;;;24.50;13.53;;;14.80;97.60;;;;;;5108296;28;20491;-70
2021/03/04 09:18:09;;;;;;;19.57;13.30;;;14.90;96.20;;;;;;5109569;28;20464;-70
2021/03/04 09:20:36;;;;;;;18.10;12.73;;;14.90;95.70;;;;;;5109211;28;20852;-71
2021/03/04 09:23:05;;;;;;;18.20;12.90;;;14.90;95.60;;;;;;5109452;28;20453;-70
2021/03/04 09:25:32;;;;;;;17.90;12.77;;;14.80;95.90;;;;;;5108950;28;20454;-70
2021/03/04 09:27:58;;;;;;;16.37;11.80;;;14.60;94.60;;;;;;5110950;28;20493;-69
2021/03/04 09:30:27;;;;;;;14.73;11.77;;;14.60;95.20;;;;;;5105185;28;20446;-69
2021/03/04 09:32:55;;;;;;;16.97;11.77;;;14.80;93.70;;;;;;5110523;28;20434;-70
2021/03/04 09:35:21;;;;;;;17.07;10.10;;;14.80;93.00;;;;;;5108219;28;20521;-69
2021/03/04 09:37:48;;;;;;;13.70;10.63;;;15.20;94.20;;;;;;5108915;28;20475;-68
2021/03/04 09:40:26;;;;;;;14.70;10.03;;;15.10;92.30;;;;;;5111827;28;20484;-71
2021/03/04 09:42:53;;;;;;;17.13;8.40;;;15.00;92.40;;;;;;5113398;28;20643;-69
2021/03/04 09:45:20;;;;;;;10.60;7.10;;;14.60;92.00;;;;;;5112687;28;20541;-71
2021/03/04 09:47:48;;;;;;;11.77;7.50;;;14.30;92.70;;;;;;5109040;28;20441;-71
2021/03/04 09:50:21;;;;;;;12.63;7.33;;;14.40;92.40;;;;;;5105335;28;20449;-70
2021/03/04 09:53:01;;;;;;;13.13;7.40;;;14.40;91.80;;;;;;5103141;28;20479;-69
2021/03/04 09:55:33;;;;;;;12.70;7.80;;;14.60;92.90;;;;;;5110640;28;20479;-70
2021/03/04 09:58:12;;;;;;;13.20;7.40;;;15.00;91.90;;;;;;5110248;27;20441;-70
2021/03/04 10:00:39;;;;;;;15.37;7.83;;;15.20;91.50;;;;;;5104700;28;20807;-70
2021/03/04 10:03:10;;;;;;;13.33;8.60;;;15.10;90.70;;;;;;5112752;28;20470;-70
2021/03/04 10:05:46;;;;;;;13.63;7.90;;;15.00;91.80;;;;;;5112107;28;20536;-69
2021/03/04 10:08:13;;;;;;;14.23;9.83;;;15.20;92.00;;;;;;5113281;28;20441;-69
2021/03/04 10:10:40;;;;;;;13.27;9.63;;;15.40;91.90;;;;;;5112362;28;20444;-70
2021/03/04 10:13:07;;;;;;;20.90;11.60;;;15.70;91.40;;;;;;5112756;28;20524;-71
2021/03/04 10:15:35;;;;;;;18.80;10.93;;;15.70;91.10;;;;;;5111271;28;20481;-69
2021/03/04 10:18:06;;;;;;;18.47;10.20;;;15.90;91.50;;;;;;5108529;28;20520;-72
2021/03/04 10:20:32;;;;;;;15.87;12.23;;;16.10;91.80;;;;;;5112453;28;20529;-71
2021/03/04 10:22:59;;;;;;;14.40;10.50;;;16.20;91.10;;;;;;5112206;28;20472;-72
2021/03/04 10:25:26;;;;;;;14.80;10.97;;;16.30;91.00;;;;;;5110324;28;20532;-70
2021/03/04 10:27:55;;;;;;;16.83;11.00;;;16.30;91.00;;;;;;5108755;28;20474;-69
2021/03/04 10:30:21;;;;;;;18.97;12.10;;;16.40;90.80;;;;;;5092018;28;20473;-70
2021/03/04 10:32:48;;;;;;;17.90;10.70;;;16.10;90.80;;;;;;5101120;28;20441;-71
2021/03/04 10:35:16;;;;;;;17.30;13.07;;;16.10;90.60;;;;;;5111009;28;20565;-71
2021/03/04 10:37:43;;;;;;;15.73;11.03;;;16.30;91.30;;;;;;5108379;28;20553;-70
2021/03/04 10:40:12;;;;;;;20.23;11.07;;;16.70;91.10;;;;;;5111796;28;20939;-71
2021/03/04 10:42:39;;;;;;;18.00;12.90;;;17.10;90.20;;;;;;5112006;28;20441;-70
2021/03/04 10:45:08;;;;;;;21.97;13.27;;;17.20;88.60;;;;;;5111535;28;20835;-71
2021/03/04 10:47:34;;;;;;;22.00;13.10;;;17.40;89.90;;;;;;5111373;28;20952;-71
2021/03/04 10:50:01;;;;;;;22.67;15.13;;;17.80;90.00;;;;;;5111534;28;21169;-70
2021/03/04 10:52:27;;;;;;;23.60;15.27;;;17.70;90.40;;;;;;5102971;27;20915;-71
2021/03/04 10:54:54;;;;;;;20.43;15.60;;;17.70;90.20;;;;;;5110943;28;20623;-70
2021/03/04 10:57:21;;;;;;;22.47;16.23;;;17.80;90.60;;;;;;5111328;28;20868;-70
2021/03/04 10:59:49;;;;;;;24.87;15.20;;;17.90;90.60;;;;;;5111953;28;20518;-70
2021/03/04 11:02:15;;;;;;;20.17;15.30;;;18.10;90.30;;;;;;5111727;28;20437;-70
2021/03/04 11:04:42;;;;;;;25.67;17.03;;;18.40;90.60;;;;;;5111329;28;20544;-70
2021/03/04 11:07:08;;;;;;;27.10;15.30;;;18.50;90.00;;;;;;5113166;28;20954;-70
2021/03/04 11:09:34;;;;;;;23.23;15.57;;;18.60;89.10;;;;;;5113579;28;20999;-71
2021/03/04 11:12:01;;;;;;;23.37;16.27;;;18.60;88.70;;;;;;5112476;28;20520;-71
2021/03/04 11:14:28;;;;;;;16.80;13.23;;;18.30;88.90;;;;;;5111771;28;21027;-70
2021/03/04 11:16:55;;;;;;;18.57;13.30;;;17.80;88.70;;;;;;5111656;28;20473;-70
2021/03/04 11:19:21;;;;;;;23.47;13.67;;;17.30;90.00;;;;;;5111841;28;20955;-70
2021/03/04 11:21:48;;;;;;;25.63;15.40;;;17.10;90.50;;;;;;5111301;28;20485;-71
2021/03/04 11:24:14;;;;;;;30.50;16.10;;;17.10;90.50;;;;;;5110539;28;20480;-70
2021/03/04 11:26:41;;;;;;;21.87;15.30;;;17.00;91.30;;;;;;5112903;27;20534;-71
2021/03/04 11:29:08;;;;;;;24.17;15.60;;;16.90;91.70;;;;;;5110880;28;20453;-70
2021/03/04 11:31:36;;;;;;;25.03;15.43;;;17.30;91.20;;;;;;5110574;28;20528;-70
2021/03/04 11:34:03;;;;;;;19.90;14.73;;;17.70;90.80;;;;;;5109935;28;21022;-71
2021/03/04 11:36:31;;;;;;;20.40;14.10;;;18.30;88.50;;;;;;5110889;28;20585;-71
2021/03/04 11:38:58;;;;;;;22.93;14.90;;;18.30;86.70;;;;;;5109679;28;20445;-70
2021/03/04 11:41:24;;;;;;;20.70;13.77;;;17.80;88.00;;;;;;5110363;28;20430;-70
2021/03/04 11:43:51;;;;;;;26.70;14.30;;;17.70;88.30;;;;;;5109261;28;20932;-70
2021/03/04 11:46:18;;;;;;;17.30;11.83;;;17.70;89.60;;;;;;5106182;27;20469;-70
2021/03/04 11:48:46;;;;;;;15.80;9.93;;;17.50;87.10;;;;;;5110112;28;20520;-70
2021/03/04 11:51:12;;;;;;;19.40;10.40;;;17.40;85.00;;;;;;5107235;28;20449;-70
2021/03/04 11:53:39;;;;;;;21.00;10.40;;;17.90;85.00;;;;;;5100165;27;20465;-71
2021/03/04 11:56:06;;;;;;;17.23;9.63;;;18.30;81.20;;;;;;5107972;28;20473;-71
2021/03/04 11:58:32;;;;;;;15.53;8.80;;;18.50;79.40;;;;;;5103506;28;20967;-71
2021/03/04 12:00:59;;;;;;;14.37;8.80;;;18.60;78.60;;;;;;5110083;28;20437;-71
2021/03/04 12:03:26;;;;;;;14.73;7.70;;;18.90;78.00;;;;;;5108697;28;20453;-71
2021/03/04 12:05:53;;;;;;;17.40;8.50;;;18.90;77.60;;;;;;5109788;28;20520;-71
2021/03/04 12:08:20;;;;;;;17.30;8.30;;;18.00;75.90;;;;;;5109940;28;20445;-71
2021/03/04 12:10:46;;;;;;;12.43;7.10;;;17.60;77.80;;;;;;5109668;28;20447;-70
2021/03/04 12:13:13;;;;;;;9.20;6.03;;;18.10;78.10;;;;;;5101667;28;20445;-70
2021/03/04 12:15:40;;;;;;;13.50;5.93;;;18.60;73.40;;;;;;5104576;28;20568;-70
2021/03/04 12:18:06;;;;;;;10.43;5.67;;;18.30;72.90;;;;;;5111696;28;20888;-70
2021/03/04 12:20:33;;;;;;;12.10;5.63;;;18.20;74.00;;;;;;5111899;28;20441;-70
2021/03/04 12:23:00;;;;;;;13.30;5.83;;;18.40;73.90;;;;;;5108929;28;20545;-70
2021/03/04 12:25:27;;;;;;;12.03;6.60;;;18.50;73.20;;;;;;5111205;28;20461;-69
2021/03/04 12:27:53;;;;;;;11.60;5.90;;;17.90;71.60;;;;;;5111839;28;20884;-70
2021/03/04 12:30:21;;;;;;;12.40;5.23;;;17.10;74.10;;;;;;5111687;28;20528;-70
2021/03/04 12:32:48;;;;;;;11.13;5.57;;;17.20;74.70;;;;;;5111507;28;20437;-72
2021/03/04 12:35:15;;;;;;;10.90;5.77;;;17.40;75.00;;;;;;5111192;28;20556;-71
2021/03/04 12:37:42;;;;;;;11.47;5.90;;;17.60;75.00;;;;;;5111233;28;21008;-71
2021/03/04 12:40:10;;;;;;;13.30;5.23;;;17.80;74.00;;;;;;5111710;27;20445;-70